Time;durP1;ratioP1;P1;durP2;ratioP2;P2;SDS_P1;SDS_P2;PMS_P1;PMS_P2;Temp;Humidity;BMP_temperature;BMP_pressure;BME280_temperature;BME280_humidity;BME280_pressure;Samples;Min_cycle;Max_cycle;Signal;HPM_P1;HPM_P2
2023/05/02 00:01:55;;;;;;;10.13;8.60;;;;;;;9.64;100.00;98228.78;5031021;28;20589;-81
2023/05/02 00:04:23;;;;;;;12.30;9.57;;;;;;;9.62;100.00;98230.66;5031041;28;20208;-80
2023/05/02 00:06:51;;;;;;;10.53;8.80;;;;;;;9.59;100.00;98232.66;5030939;28;20282;-81
2023/05/02 00:09:17;;;;;;;9.03;8.07;;;;;;;9.61;100.00;98234.25;5030765;28;20707;-80
2023/05/02 00:11:44;;;;;;;9.43;8.40;;;;;;;9.58;100.00;98228.31;5030824;28;20593;-80
2023/05/02 00:14:10;;;;;;;9.93;7.87;;;;;;;9.58;100.00;98228.31;5030785;28;20266;-80
2023/05/02 00:16:38;;;;;;;8.80;7.53;;;;;;;9.59;100.00;98235.28;5031190;28;20210;-80
2023/05/02 00:19:05;;;;;;;8.30;7.33;;;;;;;9.54;100.00;98230.31;5030887;28;20231;-80
2023/05/02 00:21:31;;;;;;;8.37;7.17;;;;;;;9.50;100.00;98225.34;5030960;28;20648;-80
2023/05/02 00:23:58;;;;;;;10.43;7.53;;;;;;;9.44;100.00;98225.72;5030876;28;20244;-81
2023/05/02 00:26:25;;;;;;;8.57;7.70;;;;;;;9.41;100.00;98225.91;5030730;28;20208;-81
2023/05/02 00:28:52;;;;;;;8.33;6.80;;;;;;;9.35;100.00;98231.56;5030793;28;20234;-80
2023/05/02 00:31:18;;;;;;;8.60;7.67;;;;;;;9.30;100.00;98228.38;5030737;28;20212;-80
2023/05/02 00:33:46;;;;;;;8.80;7.63;;;;;;;9.21;100.00;98231.59;5034497;28;20211;-81
2023/05/02 00:36:16;;;;;;;9.67;8.30;;;;;;;9.24;100.00;98229.59;5034586;28;20208;-81
2023/05/02 00:38:43;;;;;;;9.87;8.40;;;;;;;9.22;100.00;98235.91;5034642;28;20243;-81
2023/05/02 00:41:10;;;;;;;11.90;9.13;;;;;;;9.23;100.00;98237.63;5034323;28;20665;-81
2023/05/02 00:43:38;;;;;;;12.17;9.77;;;;;;;9.17;100.00;98227.47;5034891;28;20206;-80
2023/05/02 00:46:05;;;;;;;9.70;8.40;;;;;;;9.18;100.00;98229.16;5034486;28;20208;-81
2023/05/02 00:48:31;;;;;;;9.73;8.43;;;;;;;9.14;100.00;98223.22;5034231;28;20251;-80
2023/05/02 00:51:03;;;;;;;10.80;8.83;;;;;;;9.06;100.00;98230.72;5034048;28;20582;-80
2023/05/02 00:53:31;;;;;;;9.70;8.47;;;;;;;9.03;100.00;98235.34;5034260;28;20219;-81
2023/05/02 00:55:57;;;;;;;10.80;9.30;;;;;;;8.99;100.00;98233.88;5034143;28;20229;-80
2023/05/02 00:58:25;;;;;;;11.10;9.00;;;;;;;8.96;100.00;98228.78;5034129;28;20232;-80
2023/05/02 01:01:04;;;;;;;10.60;8.97;;;;;;;8.93;100.00;98231.59;5034091;28;20221;-80
2023/05/02 01:03:39;;;;;;;12.50;9.67;;;;;;;8.97;100.00;98226.03;5034168;28;20678;-80
2023/05/02 01:06:15;;;;;;;12.27;9.53;;;;;;;8.99;100.00;98229.44;5033946;28;20225;-81
2023/05/02 01:08:50;;;;;;;11.97;10.07;;;;;;;9.03;100.00;98227.44;5034286;28;20301;-81
2023/05/02 01:11:27;;;;;;;12.70;9.93;;;;;;;9.01;100.00;98239.88;5034045;28;20284;-81
2023/05/02 01:13:56;;;;;;;14.57;10.27;;;;;;;8.97;100.00;98235.72;5034023;28;20215;-81
2023/05/02 01:16:24;;;;;;;12.03;10.23;;;;;;;8.98;100.00;98237.41;5033881;28;20224;-81
2023/05/02 01:18:52;;;;;;;13.03;9.87;;;;;;;8.95;100.00;98243.75;5033925;28;20319;-81
2023/05/02 01:21:21;;;;;;;11.63;9.80;;;;;;;8.94;100.00;98246.47;5033721;28;20234;-81
2023/05/02 01:23:57;;;;;;;11.13;9.43;;;;;;;8.94;100.00;98246.47;5034040;28;20303;-81
2023/05/02 01:26:31;;;;;;;10.83;9.70;;;;;;;8.93;100.00;98239.50;5033702;28;20753;-81
2023/05/02 01:29:01;;;;;;;11.53;9.70;;;;;;;8.92;100.00;98241.28;5033883;28;20224;-81
2023/05/02 01:31:32;;;;;;;10.60;9.03;;;;;;;8.96;100.00;98241.94;5033760;28;20214;-80
2023/05/02 01:34:00;;;;;;;10.03;8.63;;;;;;;9.00;100.00;98243.47;5034034;28;20228;-81
2023/05/02 01:36:31;;;;;;;10.70;8.93;;;;;;;9.06;100.00;98240.47;5033667;28;20232;-81
2023/05/02 01:39:00;;;;;;;10.60;8.87;;;;;;;9.07;100.00;98242.97;5033536;28;20231;-80
2023/05/02 01:41:28;;;;;;;11.60;9.40;;;;;;;9.05;100.00;98238.75;5033154;28;20210;-80
2023/05/02 01:43:57;;;;;;;11.60;9.47;;;;;;;9.01;100.00;98237.25;5033388;28;20265;-81
2023/05/02 01:46:27;;;;;;;11.10;8.40;;;;;;;9.00;100.00;98240.84;5033213;28;20215;-80
2023/05/02 01:48:58;;;;;;;11.33;8.97;;;;;;;8.93;100.00;98247.41;5033232;28;20297;-80
2023/05/02 01:51:30;;;;;;;9.67;8.57;;;;;;;8.89;100.00;98245.91;5033011;28;20212;-80
2023/05/02 01:53:59;;;;;;;10.37;9.13;;;;;;;8.84;100.00;98247.97;5033074;28;20260;-80
2023/05/02 01:56:27;;;;;;;9.20;8.30;;;;;;;8.84;100.00;98253.22;5033089;28;20275;-80
2023/05/02 01:58:56;;;;;;;9.40;8.30;;;;;;;8.76;100.00;98253.69;5033158;28;20236;-80
2023/05/02 02:01:26;;;;;;;9.80;8.80;;;;;;;8.70;100.00;98255.84;5032615;28;20216;-80
2023/05/02 02:03:56;;;;;;;10.20;8.07;;;;;;;8.68;100.00;98255.94;5033294;28;20207;-81
2023/05/02 02:06:22;;;;;;;9.83;8.83;;;;;;;8.66;100.00;98256.97;5032734;28;20215;-80
2023/05/02 02:08:49;;;;;;;10.50;8.80;;;;;;;8.56;100.00;98259.31;5032654;28;20231;-81
2023/05/02 02:11:23;;;;;;;10.13;8.60;;;;;;;8.47;100.00;98251.97;5032849;28;20209;-81
2023/05/02 02:13:55;;;;;;;10.93;8.93;;;;;;;8.44;100.00;98261.81;5033529;28;20298;-80
2023/05/02 02:16:25;;;;;;;11.00;8.93;;;;;;;8.44;100.00;98265.28;5032942;28;20241;-80
2023/05/02 02:18:57;;;;;;;11.83;9.27;;;;;;;8.46;100.00;98273.09;5032714;28;20227;-80
2023/05/02 02:21:28;;;;;;;10.63;8.40;;;;;;;8.40;100.00;98270.84;5032534;28;20226;-81
2023/05/02 02:24:00;;;;;;;9.63;8.63;;;;;;;8.34;100.00;98276.47;5033100;28;20222;-80
2023/05/02 02:26:27;;;;;;;10.17;8.97;;;;;;;8.34;100.00;98289.63;5032808;28;20581;-80
2023/05/02 02:28:53;;;;;;;9.13;8.10;;;;;;;8.28;100.00;98287.34;5032614;28;20235;-80
2023/05/02 02:31:20;;;;;;;10.67;8.63;;;;;;;8.23;100.00;98300.78;5032295;28;20218;-80
2023/05/02 02:33:46;;;;;;;10.60;8.70;;;;;;;8.21;100.00;98292.09;5032329;28;20214;-81
2023/05/02 02:36:22;;;;;;;10.17;8.70;;;;;;;8.20;100.00;98297.47;5032309;28;20230;-81
2023/05/02 02:38:56;;;;;;;12.43;9.47;;;;;;;8.18;100.00;98296.66;5032142;28;20713;-81
2023/05/02 02:41:31;;;;;;;10.93;8.80;;;;;;;8.15;100.00;98296.84;5032086;28;20222;-81
2023/05/02 02:44:07;;;;;;;10.27;8.67;;;;;;;8.10;100.00;98302.38;5032366;28;20218;-80
2023/05/02 02:46:44;;;;;;;10.83;8.97;;;;;;;8.08;100.00;98311.28;5032201;28;20664;-80
2023/05/02 02:49:22;;;;;;;10.30;8.13;;;;;;;8.04;100.00;98307.13;5063420;22;20241;-79
2023/05/02 02:51:58;;;;;;;10.40;8.33;;;;;;;7.99;100.00;98317.06;5072229;28;20209;-78
2023/05/02 02:54:32;;;;;;;9.53;8.20;;;;;;;7.97;100.00;98318.94;5071252;28;20218;-77
2023/05/02 02:57:04;;;;;;;11.57;8.57;;;;;;;7.98;100.00;98325.91;5072098;28;20299;-78
2023/05/02 02:59:33;;;;;;;11.80;9.43;;;;;;;8.01;100.00;98320.44;5071874;28;20232;-78
2023/05/02 03:02:05;;;;;;;12.63;10.30;;;;;;;8.07;100.00;98325.38;5071819;28;20216;-78
2023/05/02 03:04:33;;;;;;;13.50;10.63;;;;;;;8.16;100.00;98327.50;5071888;28;20230;-78
2023/05/02 03:07:02;;;;;;;13.47;10.50;;;;;;;8.21;100.00;98338.66;5071630;28;20299;-77
2023/05/02 03:09:32;;;;;;;14.47;10.77;;;;;;;8.24;100.00;98341.09;5071586;28;20234;-78
2023/05/02 03:11:58;;;;;;;12.63;10.10;;;;;;;8.31;100.00;98339.81;5071811;28;20267;-87
2023/05/02 03:14:25;;;;;;;17.37;11.80;;;;;;;8.38;100.00;98341.19;5071589;28;20226;-78
2023/05/02 03:16:52;;;;;;;13.47;10.73;;;;;;;8.45;100.00;98342.53;5071620;28;20235;-78
2023/05/02 03:19:18;;;;;;;14.87;10.37;;;;;;;8.47;100.00;98345.91;5071128;28;20736;-77
2023/05/02 03:21:45;;;;;;;13.70;10.60;;;;;;;8.49;100.00;98347.53;5071461;28;20552;-79
2023/05/02 03:24:14;;;;;;;13.53;10.83;;;;;;;8.55;100.00;98348.94;5071702;28;20215;-79
2023/05/02 03:26:40;;;;;;;13.97;10.67;;;;;;;8.58;100.00;98349.63;5071303;28;20200;-79
2023/05/02 03:29:07;;;;;;;12.77;10.83;;;;;;;8.62;100.00;98355.59;5071052;28;20752;-78
2023/05/02 03:31:33;;;;;;;13.67;11.40;;;;;;;8.66;100.00;98351.81;5071266;28;20288;-78
2023/05/02 03:34:00;;;;;;;11.20;9.67;;;;;;;8.67;100.00;98362.28;5071279;28;20296;-78
2023/05/02 03:36:27;;;;;;;13.87;11.00;;;;;;;8.70;100.00;98353.34;5071457;28;20235;-78
2023/05/02 03:38:53;;;;;;;13.23;11.13;;;;;;;8.77;100.00;98354.69;5071316;28;20232;-78
2023/05/02 03:41:21;;;;;;;15.37;11.03;;;;;;;8.84;100.00;98356.00;5071037;28;20649;-78
2023/05/02 03:43:48;;;;;;;13.43;11.03;;;;;;;8.92;100.00;98359.91;5071273;28;20788;-78
2023/05/02 03:46:14;;;;;;;13.97;11.23;;;;;;;8.96;100.00;98361.44;5071305;28;20205;-78
2023/05/02 03:48:41;;;;;;;12.73;10.87;;;;;;;9.02;100.00;98368.13;5070945;28;20330;-77
2023/05/02 03:51:08;;;;;;;13.07;10.60;;;;;;;9.09;100.00;98372.94;5070944;28;20215;-77
2023/05/02 03:53:35;;;;;;;15.20;10.63;;;;;;;9.16;100.00;98378.69;5071287;28;20207;-77
2023/05/02 03:56:01;;;;;;;12.33;10.50;;;;;;;9.21;100.00;98382.75;5071156;28;20233;-77
2023/05/02 03:58:29;;;;;;;13.03;10.83;;;;;;;9.27;100.00;98387.66;5071120;28;20227;-77
2023/05/02 04:00:56;;;;;;;14.07;10.03;;;;;;;9.28;100.00;98383.22;5070624;28;20215;-77
2023/05/02 04:03:22;;;;;;;11.93;9.57;;;;;;;9.32;100.00;98390.88;5071337;28;20576;-77
2023/05/02 04:05:50;;;;;;;10.53;9.40;;;;;;;9.32;100.00;98390.03;5071979;28;20208;-77
2023/05/02 04:08:17;;;;;;;10.63;9.50;;;;;;;9.38;100.00;98395.78;5075166;28;20279;-77
2023/05/02 04:10:43;;;;;;;12.20;10.07;;;;;;;9.35;100.00;98389.81;5074870;28;20206;-77
2023/05/02 04:13:10;;;;;;;10.77;8.60;;;;;;;9.34;100.00;98393.41;5075048;28;20219;-77
2023/05/02 04:15:38;;;;;;;10.97;9.23;;;;;;;9.33;100.00;98397.00;5074849;28;20598;-77
2023/05/02 04:18:07;;;;;;;11.93;9.17;;;;;;;9.29;100.00;98390.19;5074903;28;20684;-77
2023/05/02 04:20:34;;;;;;;9.83;8.53;;;;;;;9.18;100.00;98392.63;5074818;28;20212;-77
2023/05/02 04:23:00;;;;;;;10.20;9.10;;;;;;;9.20;100.00;98401.31;5075002;28;20213;-77
2023/05/02 04:25:29;;;;;;;10.50;8.87;;;;;;;9.20;100.00;98402.16;5074749;28;20218;-77
2023/05/02 04:27:56;;;;;;;9.50;8.50;;;;;;;9.21;100.00;98403.84;5074809;28;20207;-77
2023/05/02 04:30:22;;;;;;;9.70;7.97;;;;;;;9.19;100.00;98399.59;5074398;28;20437;-77
2023/05/02 04:32:50;;;;;;;10.80;8.73;;;;;;;9.15;100.00;98406.00;5074926;28;20214;-77
2023/05/02 04:35:17;;;;;;;9.53;8.27;;;;;;;9.19;100.00;98405.72;5074640;28;20268;-77
2023/05/02 04:37:43;;;;;;;10.43;8.53;;;;;;;9.20;100.00;98412.72;5074400;28;20256;-77
2023/05/02 04:40:11;;;;;;;9.47;8.30;;;;;;;9.19;100.00;98410.16;5074219;28;20234;-78
2023/05/02 04:42:37;;;;;;;10.20;8.77;;;;;;;9.19;100.00;98410.97;5074434;28;20212;-78
2023/05/02 04:45:05;;;;;;;10.43;8.73;;;;;;;9.22;100.00;98420.50;5074295;28;20211;-78
2023/05/02 04:47:31;;;;;;;10.60;9.40;;;;;;;9.24;100.00;98416.00;5074544;28;20216;-78
2023/05/02 04:49:59;;;;;;;11.43;9.53;;;;;;;9.31;100.00;98425.25;5073934;28;20249;-77
2023/05/02 04:52:28;;;;;;;11.17;9.70;;;;;;;9.35;100.00;98421.47;5074188;28;20689;-77
2023/05/02 04:54:57;;;;;;;12.13;10.07;;;;;;;9.43;100.00;98416.59;5074124;28;20208;-77
2023/05/02 04:57:23;;;;;;;11.17;9.53;;;;;;;9.49;100.00;98418.88;5074161;28;20591;-77
2023/05/02 04:59:50;;;;;;;11.67;9.17;;;;;;;9.55;100.00;98429.06;5073899;28;20251;-76
2023/05/02 05:02:16;;;;;;;11.90;9.10;;;;;;;9.57;100.00;98428.03;5074144;28;20222;-82
2023/05/02 05:04:44;;;;;;;11.90;9.50;;;;;;;9.61;100.00;98433.97;5073962;28;20279;-78
2023/05/02 05:07:12;;;;;;;11.70;9.70;;;;;;;9.63;100.00;98435.56;5073957;28;20641;-81
2023/05/02 05:09:38;;;;;;;11.30;9.27;;;;;;;9.65;100.00;98444.25;5073892;28;20234;-82
2023/05/02 05:12:05;;;;;;;12.57;10.30;;;;;;;9.69;100.00;98447.53;5074001;28;20211;-86
2023/05/02 05:14:32;;;;;;;10.00;8.73;;;;;;;9.73;100.00;98449.06;5073940;28;20207;-78
2023/05/02 05:16:58;;;;;;;12.67;9.57;;;;;;;9.75;100.00;98453.31;5073543;28;20237;-81
2023/05/02 05:19:25;;;;;;;11.03;9.43;;;;;;;9.79;100.00;98459.25;5072882;28;20228;-82
2023/05/02 05:21:52;;;;;;;12.43;9.80;;;;;;;9.88;100.00;98471.88;5073718;28;20309;-80
2023/05/02 05:24:20;;;;;;;12.57;10.00;;;;;;;9.96;100.00;98474.88;5073582;28;20215;-82
2023/05/02 05:26:46;;;;;;;10.83;9.53;;;;;;;10.04;100.00;98480.59;5073606;28;20671;-82
2023/05/02 05:29:13;;;;;;;12.03;9.47;;;;;;;10.12;100.00;98475.69;5073163;28;20735;-87
2023/05/02 05:31:40;;;;;;;12.27;9.17;;;;;;;10.18;100.00;98484.09;5073660;28;20209;-82
2023/05/02 05:34:07;;;;;;;12.30;9.83;;;;;;;10.32;100.00;98488.50;5073491;28;20730;-82
2023/05/02 05:36:33;;;;;;;10.80;9.63;;;;;;;10.35;100.00;98493.59;5073007;28;20236;-80
2023/05/02 05:39:00;;;;;;;10.60;8.80;;;;;;;10.47;100.00;98492.84;5073291;28;20239;-83
2023/05/02 05:41:28;;;;;;;12.37;11.07;;;;;;;10.59;100.00;98494.69;5072007;28;20427;-83
2023/05/02 05:43:55;;;;;;;10.17;9.07;;;;;;;10.70;100.00;98502.81;5073370;28;20452;-77
2023/05/02 05:46:21;;;;;;;9.97;8.50;;;;;;;10.81;100.00;98505.59;5073324;28;20203;-78
2023/05/02 05:48:48;;;;;;;11.73;8.67;;;;;;;10.83;100.00;98509.00;5073082;28;20243;-78
2023/05/02 05:51:14;;;;;;;10.50;8.73;;;;;;;10.92;100.00;98513.69;5072893;28;20213;-78
2023/05/02 05:53:41;;;;;;;11.20;8.97;;;;;;;10.93;100.00;98515.38;5072996;28;20206;-78
2023/05/02 05:56:10;;;;;;;9.03;8.07;;;;;;;10.92;100.00;98518.97;5073273;28;20238;-78
2023/05/02 05:58:39;;;;;;;10.30;8.33;;;;;;;10.92;100.00;98519.84;5072949;28;20715;-78
2023/05/02 06:01:06;;;;;;;9.73;8.37;;;;;;;10.95;100.00;98524.06;5072820;28;20207;-78
2023/05/02 06:03:32;;;;;;;8.77;7.87;;;;;;;11.04;100.00;98523.47;5073122;28;20356;-78
2023/05/02 06:05:59;;;;;;;9.10;8.20;;;;;;;11.13;100.00;98522.88;5072814;28;20207;-78
2023/05/02 06:08:26;;;;;;;9.07;8.17;;;;;;;11.29;100.00;98526.22;5073042;28;20602;-78
2023/05/02 06:10:52;;;;;;;10.37;9.17;;;;;;;11.45;100.00;98521.59;5072695;28;20234;-78
2023/05/02 06:13:19;;;;;;;10.77;9.43;;;;;;;11.55;100.00;98523.53;5072898;28;20220;-78
2023/05/02 06:15:47;;;;;;;9.83;8.83;;;;;;;11.61;100.00;98531.09;5072691;28;20245;-78
2023/05/02 06:18:14;;;;;;;10.03;8.90;;;;;;;11.58;100.00;98525.13;5073049;28;20211;-78
2023/05/02 06:20:40;;;;;;;10.60;9.37;;;;;;;11.56;100.00;98534.97;5072131;28;20207;-78
2023/05/02 06:23:07;;;;;;;10.80;8.67;;;;;;;11.66;100.00;98533.44;5072541;28;20670;-79
2023/05/02 06:25:33;;;;;;;10.93;9.37;;;;;;;11.77;100.00;98541.50;5072678;28;20208;-79
2023/05/02 06:28:00;;;;;;;10.23;9.20;;;;;;;12.16;100.00;98530.84;5072522;28;20256;-78
2023/05/02 06:30:26;;;;;;;9.50;8.17;;;;;;;12.43;100.00;98536.88;5071211;28;20212;-78
2023/05/02 06:32:54;;;;;;;10.50;8.57;;;;;;;12.62;100.00;98548.72;5072413;28;20263;-78
2023/05/02 06:35:20;;;;;;;9.67;8.33;;;;;;;12.59;100.00;98540.97;5072105;28;20700;-78
2023/05/02 06:37:47;;;;;;;9.60;8.70;;;;;;;12.51;100.00;98539.81;5072135;28;20235;-78
2023/05/02 06:40:14;;;;;;;10.43;8.40;;;;;;;12.35;100.00;98544.53;5072034;28;20246;-78
2023/05/02 06:42:40;;;;;;;11.50;9.53;;;;;;;12.34;100.00;98558.72;5072254;28;20222;-78
2023/05/02 06:45:07;;;;;;;10.57;9.47;;;;;;;12.35;100.00;98568.38;5072109;28;20210;-77
2023/05/02 06:47:34;;;;;;;11.50;10.13;;;;;;;12.32;100.00;98561.47;5071909;28;20209;-77
2023/05/02 06:50:02;;;;;;;11.33;9.23;;;;;;;12.18;100.00;98566.88;5071376;28;20748;-76
2023/05/02 06:52:28;;;;;;;10.77;9.13;;;;;;;12.19;100.00;98565.06;5072305;28;20298;-77
2023/05/02 06:54:55;;;;;;;11.83;10.20;;;;;;;12.13;100.00;98578.75;5072268;28;20211;-79
2023/05/02 06:57:21;;;;;;;11.20;9.63;;;;;;;12.11;100.00;98572.72;5071805;28;20231;-78
2023/05/02 06:59:48;;;;;;;12.00;10.00;;;;;;;12.11;100.00;98580.66;5071620;28;20227;-78
2023/05/02 07:02:14;;;;;;;12.63;10.07;;;;;;;12.08;100.00;98583.50;5071848;28;20211;-78
2023/05/02 07:04:41;;;;;;;14.27;11.07;;;;;;;11.99;100.00;98584.13;5071917;28;20215;-78
2023/05/02 07:07:08;;;;;;;16.70;11.10;;;;;;;12.03;100.00;98596.22;5071916;28;20217;-78
2023/05/02 07:09:35;;;;;;;14.77;10.63;;;;;;;11.97;100.00;98599.28;5071333;28;20709;-78
2023/05/02 07:12:02;;;;;;;12.57;11.03;;;;;;;11.99;100.00;98600.88;5071802;28;20627;-78
2023/05/02 07:14:28;;;;;;;13.40;10.60;;;;;;;12.04;100.00;98609.34;5071917;28;20254;-78
2023/05/02 07:16:55;;;;;;;12.73;11.23;;;;;;;12.06;100.00;98611.91;5071526;28;20609;-78
2023/05/02 07:19:21;;;;;;;13.90;12.03;;;;;;;12.03;100.00;98612.09;5071161;28;20226;-78
2023/05/02 07:21:48;;;;;;;12.30;11.00;;;;;;;12.04;100.00;98608.53;5071752;28;20208;-77
2023/05/02 07:24:16;;;;;;;17.57;12.97;;;;;;;12.10;100.00;98613.41;5071590;28;20678;-78
2023/05/02 07:26:43;;;;;;;14.23;11.83;;;;;;;12.10;100.00;98618.72;5071601;28;20210;-78
2023/05/02 07:29:09;;;;;;;13.73;11.80;;;;;;;12.16;100.00;98613.00;5071070;28;20242;-78
2023/05/02 07:31:36;;;;;;;14.50;12.20;;;;;;;12.17;100.00;98610.22;5071397;28;20211;-78
2023/05/02 07:34:02;;;;;;;14.13;12.13;;;;;;;12.32;100.00;98610.97;5071528;28;20230;-78
2023/05/02 07:36:29;;;;;;;13.37;11.77;;;;;;;12.37;100.00;98616.81;5071371;28;20328;-78
2023/05/02 07:38:55;;;;;;;19.50;14.53;;;;;;;12.47;100.00;98624.03;5071325;28;20234;-78
2023/05/02 07:41:23;;;;;;;14.90;12.27;;;;;;;12.54;100.00;98619.16;5070824;28;20258;-78
2023/05/02 07:43:50;;;;;;;17.87;13.97;;;;;;;12.54;100.00;98609.38;5071295;28;20221;-79
2023/05/02 07:46:16;;;;;;;17.20;13.80;;;;;;;12.50;100.00;98612.38;5071476;28;20206;-79
2023/05/02 07:48:43;;;;;;;16.47;13.40;;;;;;;12.59;100.00;98617.03;5070944;28;20239;-78
2023/05/02 07:51:11;;;;;;;16.83;14.13;;;;;;;12.70;100.00;98614.47;5071167;28;20302;-78
2023/05/02 07:53:37;;;;;;;16.80;13.67;;;;;;;12.82;100.00;98622.44;5071326;28;20501;-78
2023/05/02 07:56:05;;;;;;;15.03;12.43;;;;;;;12.94;100.00;98623.34;5070990;28;20303;-77
2023/05/02 07:58:32;;;;;;;16.17;13.90;;;;;;;12.98;100.00;98619.56;5071007;28;20314;-78
2023/05/02 08:00:59;;;;;;;19.13;15.27;;;;;;;12.97;100.00;98617.88;5071079;28;20203;-78
2023/05/02 08:03:28;;;;;;;16.40;14.57;;;;;;;12.96;100.00;98619.66;5071157;28;20593;-78
2023/05/02 08:05:55;;;;;;;19.30;15.53;;;;;;;13.08;100.00;98625.94;5071135;28;20210;-78
2023/05/02 08:08:21;;;;;;;18.93;15.40;;;;;;;13.02;99.60;98621.88;5071086;28;20219;-78
2023/05/02 08:10:50;;;;;;;20.13;16.00;;;;;;;13.07;100.00;98624.25;5070700;28;20208;-78
2023/05/02 08:13:16;;;;;;;21.50;17.07;;;;;;;13.07;98.42;98634.84;5070918;28;20203;-78
2023/05/02 08:15:44;;;;;;;19.07;16.07;;;;;;;13.14;97.92;98636.09;5071193;28;20214;-78
2023/05/02 08:18:11;;;;;;;18.43;15.30;;;;;;;13.29;98.83;98640.31;5070897;28;20228;-78
2023/05/02 08:20:37;;;;;;;21.90;17.50;;;;;;;13.46;98.68;98645.25;5070718;28;20594;-78
2023/05/02 08:23:04;;;;;;;20.93;16.67;;;;;;;13.56;96.25;98638.31;5070929;28;20215;-77
2023/05/02 08:25:30;;;;;;;19.47;16.03;;;;;;;13.59;96.46;98641.59;5070803;28;20307;-78
2023/05/02 08:27:57;;;;;;;20.30;16.47;;;;;;;13.70;95.88;98641.63;5070689;28;20582;-77
2023/05/02 08:30:23;;;;;;;21.40;16.87;;;;;;;13.68;93.18;98632.94;5070729;28;20214;-78
2023/05/02 08:32:51;;;;;;;19.13;16.10;;;;;;;13.78;93.71;98643.72;5070748;28;20211;-78
2023/05/02 08:35:18;;;;;;;21.97;16.80;;;;;;;13.87;94.86;98640.41;5070931;28;20229;-78
2023/05/02 08:37:44;;;;;;;18.63;15.67;;;;;;;14.06;95.17;98643.38;5070622;28;20251;-78
2023/05/02 08:40:13;;;;;;;19.60;16.63;;;;;;;14.18;96.02;98650.44;5070316;28;20232;-79
2023/05/02 08:42:43;;;;;;;20.80;16.70;;;;;;;14.23;94.09;98645.66;5071062;28;20341;-78
2023/05/02 08:45:12;;;;;;;19.97;15.60;;;;;;;14.46;93.33;98658.03;5070666;28;20213;-78
2023/05/02 08:47:40;;;;;;;18.60;15.47;;;;;;;14.49;91.16;98641.84;5070793;28;20584;-78
2023/05/02 08:50:09;;;;;;;18.60;15.73;;;;;;;14.53;93.53;98661.91;5058103;22;20239;-85
2023/05/02 08:52:36;;;;;;;19.00;15.53;;;;;;;14.64;92.81;98645.97;5031218;28;20209;-85
2023/05/02 08:55:04;;;;;;;21.63;16.70;;;;;;;14.73;91.36;98645.28;5034467;28;20210;-85
2023/05/02 08:57:30;;;;;;;19.80;16.63;;;;;;;14.82;90.02;98639.22;5034336;28;20240;-85
2023/05/02 08:59:57;;;;;;;20.10;15.27;;;;;;;14.87;89.73;98648.56;5034079;28;20235;-85
2023/05/02 09:02:39;;;;;;;20.87;15.77;;;;;;;14.95;89.24;98645.28;5034269;28;20226;-85
2023/05/02 09:05:11;;;;;;;20.33;17.03;;;;;;;14.93;87.22;98637.44;5034270;28;20608;-84
2023/05/02 09:07:46;;;;;;;19.87;16.70;;;;;;;15.02;83.81;98628.72;5034480;28;20276;-85
2023/05/02 09:10:13;;;;;;;20.20;16.73;;;;;;;15.07;83.60;98633.66;5033999;28;20239;-85
2023/05/02 09:12:39;;;;;;;19.53;16.27;;;;;;;15.07;83.15;98636.31;5034152;28;20526;-84
2023/05/02 09:15:10;;;;;;;21.27;16.97;;;;;;;15.11;84.31;98640.44;5034113;28;20219;-85
2023/05/02 09:17:44;;;;;;;22.80;17.03;;;;;;;15.15;87.82;98657.88;5033775;28;20308;-85
2023/05/02 09:20:14;;;;;;;19.77;16.37;;;;;;;15.24;88.06;98667.78;5033641;28;20234;-85
2023/05/02 09:22:48;;;;;;;19.33;15.33;;;;;;;15.27;87.85;98667.56;5034043;28;20218;-85
2023/05/02 09:25:15;;;;;;;18.53;15.77;;;;;;;15.30;86.74;98667.31;5033867;28;20209;-84
2023/05/02 09:27:52;;;;;;;20.77;16.97;;;;;;;15.34;86.63;98663.47;5033739;28;20258;-85
2023/05/02 09:30:20;;;;;;;19.77;16.37;;;;;;;15.46;86.57;98667.81;5033143;28;20308;-85
2023/05/02 09:32:50;;;;;;;20.40;16.27;;;;;;;15.71;86.07;98664.84;5033581;28;20274;-85
2023/05/02 09:35:22;;;;;;;23.87;18.30;;;;;;;15.90;84.46;98659.72;5034918;28;20262;-85
2023/05/02 09:37:50;;;;;;;19.23;16.30;;;;;;;16.06;82.18;98652.16;5034003;28;20235;-85
2023/05/02 09:40:17;;;;;;;21.17;16.10;;;;;;;16.09;82.39;98648.22;5033148;28;20235;-85
2023/05/02 09:42:43;;;;;;;20.60;16.37;;;;;;;16.12;82.71;98651.66;5033343;28;20208;-85
2023/05/02 09:45:19;;;;;;;23.20;18.00;;;;;;;15.84;80.24;98637.09;5033455;28;20208;-85
2023/05/02 09:47:46;;;;;;;20.33;17.87;;;;;;;15.57;83.08;98657.16;5033419;28;20201;-85
2023/05/02 09:50:31;;;;;;;21.27;18.67;;;;;;;15.45;82.22;98647.47;5033192;28;20718;-85
2023/05/02 09:53:03;;;;;;;21.70;17.40;;;;;;;15.42;84.79;98664.56;5033336;28;20218;-85
2023/05/02 09:55:30;;;;;;;21.77;18.80;;;;;;;15.53;83.22;98658.34;5033519;28;20223;-85
2023/05/02 09:57:56;;;;;;;23.03;18.57;;;;;;;15.35;81.29;98646.50;5033412;28;20227;-85
2023/05/02 10:00:23;;;;;;;25.67;19.87;;;;;;;15.47;81.55;98654.34;5032779;28;20235;-85
2023/05/02 10:02:51;;;;;;;22.40;18.10;;;;;;;15.46;82.71;98658.00;5033163;28;20239;-85
2023/05/02 10:05:19;;;;;;;21.47;19.17;;;;;;;15.38;81.45;98648.91;5032813;28;20689;-85
2023/05/02 10:07:47;;;;;;;21.93;18.50;;;;;;;15.35;80.85;98649.19;5032779;28;20218;-85
2023/05/02 10:10:17;;;;;;;23.53;18.20;;;;;;;15.41;79.33;98646.03;5032648;28;20235;-85
2023/05/02 10:12:45;;;;;;;21.23;18.40;;;;;;;15.32;80.26;98660.03;5032746;28;20671;-85
2023/05/02 10:15:15;;;;;;;23.03;18.70;;;;;;;15.32;80.80;98649.38;5033330;28;20684;-85
2023/05/02 10:17:48;;;;;;;21.57;17.73;;;;;;;15.50;78.26;98646.13;5032819;28;20278;-85
2023/05/02 10:20:20;;;;;;;18.73;16.73;;;;;;;15.61;77.86;98651.44;5032265;28;20231;-85
2023/05/02 10:22:49;;;;;;;21.03;18.17;;;;;;;15.91;74.71;98626.75;5032632;28;20620;-85
2023/05/02 10:25:17;;;;;;;24.57;17.60;;;;;;;16.12;77.11;98651.66;5032525;28;20289;-85
2023/05/02 10:27:44;;;;;;;18.13;15.97;;;;;;;16.22;74.49;98640.06;5032852;28;20601;-84
2023/05/02 10:30:13;;;;;;;18.93;15.63;;;;;;;16.40;74.37;98639.38;5032071;28;20263;-84
2023/05/02 10:32:40;;;;;;;18.10;15.87;;;;;;;16.45;75.18;98636.34;5032304;28;20227;-85
2023/05/02 10:35:07;;;;;;;18.37;16.40;;;;;;;16.55;73.20;98630.09;5032458;28;20216;-85
2023/05/02 10:37:37;;;;;;;17.90;15.77;;;;;;;16.66;68.03;98606.00;5032197;28;20717;-85
2023/05/02 10:40:04;;;;;;;18.03;15.87;;;;;;;16.77;67.49;98605.91;5032317;28;20675;-85
2023/05/02 10:42:38;;;;;;;17.90;15.57;;;;;;;16.90;66.10;98587.84;5032465;28;20215;-85
2023/05/02 10:45:06;;;;;;;14.43;12.33;;;;;;;16.95;66.93;98596.28;5032459;28;20584;-85
2023/05/02 10:47:33;;;;;;;18.47;15.50;;;;;;;16.85;68.30;98599.91;5032166;28;20216;-85
2023/05/02 10:50:01;;;;;;;19.80;16.37;;;;;;;16.90;66.77;98587.84;5031643;28;20240;-85
2023/05/02 10:52:33;;;;;;;17.97;15.77;;;;;;;16.78;67.58;98599.59;5032143;28;20208;-85
2023/05/02 10:55:17;;;;;;;19.33;15.93;;;;;;;16.80;66.37;98583.44;5031986;28;20216;-85
2023/05/02 10:58:24;;;;;;;18.10;14.83;;;;;;;17.05;67.16;98597.19;5031845;28;20238;-85
2023/05/02 11:00:51;;;;;;;19.40;15.40;;;;;;;17.41;64.45;98577.91;5032368;28;20216;-85
2023/05/02 11:03:50;;;;;;;16.47;14.10;;;;;;;17.65;67.01;98591.75;5032744;28;20209;-85
2023/05/02 11:06:17;;;;;;;17.47;14.20;;;;;;;17.73;66.21;98583.88;5032448;28;20216;-85
2023/05/02 11:08:43;;;;;;;18.90;14.70;;;;;;;17.72;64.44;98574.16;5032593;28;20323;-86
2023/05/02 11:11:39;;;;;;;14.67;13.07;;;;;;;17.56;65.41;98586.38;5032058;28;20208;-85
2023/05/02 11:14:07;;;;;;;14.73;13.10;;;;;;;17.48;65.11;98583.53;5031786;28;20212;-85
2023/05/02 11:17:08;;;;;;;17.13;15.07;;;;;;;17.29;65.92;98595.00;5030816;28;20213;-85
2023/05/02 11:20:08;;;;;;;15.27;12.93;;;;;;;17.23;66.59;98590.22;5009114;28;20229;-85
2023/05/02 11:22:34;;;;;;;16.10;12.87;;;;;;;17.31;66.25;98598.38;5031307;28;20270;-86
2023/05/02 11:25:01;;;;;;;14.83;13.27;;;;;;;17.23;64.36;98584.00;5031830;28;20213;-85
2023/05/02 11:27:37;;;;;;;17.27;14.67;;;;;;;17.12;63.79;98574.28;5031648;28;20208;-86